Time;durP1;ratioP1;P1;durP2;ratioP2;P2;SDS_P1;SDS_P2;PMS_P1;PMS_P2;Temp;Humidity;BMP_temperature;BMP_pressure;BME280_temperature;BME280_humidity;BME280_pressure;Samples;Min_cycle;Max_cycle;Signal;HPM_P1;HPM_P2
2023/02/14 00:02:17;;;;;;;26.90;9.40;;;;;;;-145.69;100.00;52666.19;5102957;28;20192;-82
2023/02/14 00:04:45;;;;;;;23.57;9.33;;;;;;;-145.69;100.00;52654.31;5111577;28;20205;-83
2023/02/14 00:07:12;;;;;;;25.50;9.97;;;;;;;-145.69;100.00;52654.31;5114175;28;20292;-83
2023/02/14 00:09:38;;;;;;;24.77;8.53;;;;;;;-145.69;100.00;52686.00;5114442;28;20197;-82
2023/02/14 00:12:06;;;;;;;26.77;9.00;;;;;;;-145.69;100.00;52687.97;5114327;28;20197;-83
2023/02/14 00:17:17;;;;;;;23.10;8.40;;;;;;;-145.69;100.00;52670.16;5114487;28;20282;-83
2023/02/14 00:19:44;;;;;;;19.00;7.10;;;;;;;-145.69;100.00;52634.50;5114314;28;20204;-84
2023/02/14 00:22:10;;;;;;;16.13;7.13;;;;;;;-145.69;100.00;52654.31;5114102;28;20205;-83
2023/02/14 00:24:37;;;;;;;18.80;6.97;;;;;;;-145.69;100.00;52622.63;5112958;28;20201;-83
2023/02/14 00:27:03;;;;;;;16.80;6.80;;;;;;;-145.69;100.00;52650.34;5114342;28;20200;-83
2023/02/14 00:29:32;;;;;;;16.90;6.93;;;;;;;-145.69;100.00;52676.09;5109474;28;20206;-83
2023/02/14 00:32:00;;;;;;;15.90;6.33;;;;;;;-145.69;100.00;52646.41;5094884;28;20198;-82
2023/02/14 00:34:26;;;;;;;12.97;5.93;;;;;;;-145.69;100.00;52670.16;5114082;28;20235;-82
2023/02/14 00:36:53;;;;;;;13.63;6.03;;;;;;;-145.69;100.00;52678.09;5114182;28;20198;-83
2023/02/14 00:39:20;;;;;;;16.10;5.40;;;;;;;-145.69;100.00;52666.19;5114199;28;20203;-83
2023/02/14 00:41:46;;;;;;;11.07;4.80;;;;;;;-145.69;100.00;52656.28;5113865;28;20237;-83
2023/02/14 00:44:13;;;;;;;9.53;4.43;;;;;;;-145.69;100.00;52652.34;5113935;28;20201;-83
2023/02/14 00:46:41;;;;;;;10.17;4.10;;;;;;;-145.69;100.00;52662.22;5113812;28;20220;-83
2023/02/14 00:49:08;;;;;;;17.43;4.80;;;;;;;-145.69;100.00;52630.53;5113932;28;20221;-83
2023/02/14 00:51:35;;;;;;;10.60;4.30;;;;;;;-145.69;100.00;52638.47;5113501;28;20197;-83
2023/02/14 00:54:02;;;;;;;9.63;3.93;;;;;;;-145.69;100.00;52658.28;5113943;28;20247;-83
2023/02/14 00:56:29;;;;;;;10.27;4.20;;;;;;;-145.69;100.00;52622.63;5111984;28;20198;-83
2023/02/14 00:58:55;;;;;;;10.07;4.63;;;;;;;-145.69;100.00;52620.66;5097412;28;20206;-83
2023/02/14 01:01:22;;;;;;;9.17;4.53;;;;;;;-145.69;100.00;52658.28;5097579;28;20211;-83
2023/02/14 01:03:50;;;;;;;10.40;4.23;;;;;;;-145.69;100.00;52658.28;5104072;28;20644;-83
2023/02/14 01:06:16;;;;;;;11.70;4.47;;;;;;;-145.69;100.00;52664.22;5117721;27;20246;-83
2023/02/14 01:08:43;;;;;;;12.20;4.20;;;;;;;-145.69;100.00;52614.72;5117739;28;20198;-83
2023/02/14 01:11:11;;;;;;;11.00;4.20;;;;;;;-145.69;100.00;52638.47;5100792;28;20190;-83
2023/02/14 01:13:38;;;;;;;8.87;4.20;;;;;;;-145.69;100.00;52682.03;5097126;28;20226;-82
2023/02/14 01:16:07;;;;;;;12.03;3.70;;;;;;;-145.69;100.00;52620.66;5105793;28;20572;-83
2023/02/14 01:18:34;;;;;;;9.07;3.27;;;;;;;-145.69;100.00;52686.00;5117502;28;20240;-83
2023/02/14 01:21:12;;;;;;;7.97;3.00;;;;;;;-145.69;100.00;52658.28;5117400;28;20217;-83
2023/02/14 01:23:38;;;;;;;4.77;2.37;;;;;;;-145.69;100.00;52658.28;5117276;28;20202;-82
2023/02/14 01:26:06;;;;;;;5.73;2.47;;;;;;;-145.69;100.00;52634.50;5117418;28;20205;-82
2023/02/14 01:28:32;;;;;;;4.83;2.07;;;;;;;-145.69;100.00;52662.22;5117471;28;20660;-82
2023/02/14 01:31:06;;;;;;;3.97;2.10;;;;;;;-145.69;100.00;52648.38;5115853;28;20243;-82
2023/02/14 01:33:32;;;;;;;5.20;2.60;;;;;;;-145.69;100.00;52656.28;5117177;28;20581;-83
2023/02/14 01:35:59;;;;;;;4.60;2.30;;;;;;;-145.69;100.00;52664.22;5117438;28;20201;-82
2023/02/14 01:38:27;;;;;;;3.50;2.10;;;;;;;-145.69;100.00;52650.34;5115982;28;20197;-83
2023/02/14 01:40:53;;;;;;;3.30;2.23;;;;;;;-145.69;100.00;52638.47;5116786;28;20193;-82
2023/02/14 01:43:20;;;;;;;4.20;2.53;;;;;;;-145.69;100.00;52654.31;5116699;28;20719;-81
2023/02/14 01:45:46;;;;;;;4.60;2.43;;;;;;;-145.69;100.00;52656.28;5116984;28;20201;-83
2023/02/14 01:48:14;;;;;;;3.57;2.20;;;;;;;-145.69;100.00;52670.16;5117015;28;20194;-82
2023/02/14 01:50:45;;;;;;;3.53;2.13;;;;;;;-145.69;100.00;52678.09;5116732;28;20200;-82
2023/02/14 01:53:15;;;;;;;6.23;1.90;;;;;;;-145.69;100.00;52658.28;5116274;28;20225;-82
2023/02/14 01:55:46;;;;;;;4.40;2.20;;;;;;;-145.69;100.00;52652.34;5117051;28;20204;-83
2023/02/14 01:58:18;;;;;;;5.93;2.07;;;;;;;-145.69;100.00;52658.28;5116636;28;20656;-82
2023/02/14 02:00:56;;;;;;;3.40;1.90;;;;;;;-145.69;100.00;52654.31;5116830;28;20201;-83
2023/02/14 02:03:26;;;;;;;2.53;1.90;;;;;;;-145.69;100.00;52658.28;5085263;28;20197;-83
2023/02/14 02:05:55;;;;;;;2.63;1.70;;;;;;;-145.69;100.00;52674.13;5116532;28;20203;-84
2023/02/14 02:08:22;;;;;;;3.33;1.70;;;;;;;-145.69;100.00;52658.28;5115698;28;20197;-84
2023/02/14 02:10:50;;;;;;;3.80;2.10;;;;;;;-145.69;100.00;52630.53;5116317;28;20568;-83
2023/02/14 02:13:19;;;;;;;4.27;2.00;;;;;;;-145.69;100.00;52626.59;5116602;28;20205;-83
2023/02/14 02:15:56;;;;;;;4.77;2.03;;;;;;;-145.69;100.00;52658.28;5116531;28;20212;-84
2023/02/14 02:18:31;;;;;;;2.37;1.40;;;;;;;-145.69;100.00;52664.22;5115977;28;20679;-81
2023/02/14 02:21:39;;;;;;;3.40;1.60;;;;;;;-145.69;100.00;52614.72;5116058;28;20228;-82
2023/02/14 02:24:17;;;;;;;4.33;1.57;;;;;;;-145.69;100.00;52618.66;5108968;28;20201;-81
2023/02/14 02:27:09;;;;;;;2.10;1.40;;;;;;;-145.69;100.00;52670.16;5115830;28;20204;-82
2023/02/14 02:30:06;;;;;;;2.30;1.23;;;;;;;-145.69;100.00;52640.44;5075772;28;20206;-83
2023/02/14 02:32:53;;;;;;;2.20;1.30;;;;;;;-145.69;100.00;52646.41;5104753;28;20201;-83
2023/02/14 02:35:56;;;;;;;2.33;1.50;;;;;;;-145.69;100.00;52654.31;5112727;28;20226;-82
2023/02/14 02:38:43;;;;;;;1.43;1.10;;;;;;;-145.69;100.00;52624.59;5095725;28;20194;-84
2023/02/14 02:41:18;;;;;;;1.70;1.13;;;;;;;-145.69;100.00;52648.38;5095456;28;20297;-85
2023/02/14 02:43:53;;;;;;;2.07;1.17;;;;;;;-145.69;100.00;52650.34;5075541;28;20197;-82
2023/02/14 02:53:01;;;;;;;2.00;1.40;;;;;;;-145.69;100.00;52662.22;5073745;28;20202;-84
2023/02/14 02:55:12;;;;;;;1.70;1.30;;;;;;;-145.69;100.00;52678.09;5033261;28;20239;-84
2023/02/14 02:57:41;;;;;;;1.50;1.03;;;;;;;-145.69;100.00;52654.31;5062836;28;20205;-84
2023/02/14 03:00:11;;;;;;;1.70;0.93;;;;;;;-145.69;100.00;52602.81;5074930;28;20225;-82
2023/02/14 03:05:22;;;;;;;0.70;0.70;;;;;;;-145.69;100.00;52674.13;5067184;28;20273;-83
2023/02/14 03:07:49;;;;;;;1.10;1.00;;;;;;;-145.69;100.00;52682.03;5055029;28;20203;-83
2023/02/14 03:10:19;;;;;;;1.97;1.20;;;;;;;-145.69;100.00;52664.22;5061519;28;20195;-83
2023/02/14 03:13:13;;;;;;;2.40;0.80;;;;;;;-145.69;100.00;52686.00;5074925;28;20191;-82
2023/02/14 03:15:51;;;;;;;0.90;0.90;;;;;;;-145.69;100.00;52660.25;5074750;28;20233;-83
2023/02/14 03:21:26;;;;;;;0.90;0.90;;;;;;;-145.69;100.00;52646.41;5074323;28;20202;-84
2023/02/14 03:23:58;;;;;;;0.80;0.80;;;;;;;-145.69;100.00;52652.34;5074715;28;20203;-82
2023/02/14 03:26:34;;;;;;;3.80;1.47;;;;;;;-145.69;100.00;52678.09;5074403;28;20199;-83
2023/02/14 03:29:12;;;;;;;2.20;1.00;;;;;;;-145.69;100.00;52642.44;5073325;28;20233;-83
2023/02/14 03:31:47;;;;;;;1.00;1.00;;;;;;;-145.69;100.00;52644.41;5074273;28;20198;-82
2023/02/14 03:34:17;;;;;;;1.47;1.23;;;;;;;-145.69;100.00;52654.31;5074094;28;20627;-83
2023/02/14 03:36:50;;;;;;;1.10;1.00;;;;;;;-145.69;100.00;52654.31;5074279;28;20198;-82
2023/02/14 03:39:24;;;;;;;1.10;1.00;;;;;;;-145.69;100.00;52670.16;5074066;28;20206;-82
2023/02/14 03:41:57;;;;;;;0.80;0.80;;;;;;;-145.69;100.00;52634.50;5082625;28;20228;-82
2023/02/14 03:44:29;;;;;;;1.40;1.23;;;;;;;-145.69;100.00;52644.41;5114918;28;20200;-83
2023/02/14 03:47:01;;;;;;;3.17;0.93;;;;;;;-145.69;100.00;52654.31;5113899;28;20244;-82
2023/02/14 03:49:31;;;;;;;2.80;1.00;;;;;;;-145.69;100.00;52630.53;5114610;28;20193;-82
2023/02/14 03:52:01;;;;;;;1.07;0.93;;;;;;;-145.69;100.00;52674.13;5114436;28;20201;-83
2023/02/14 03:54:31;;;;;;;0.80;0.80;;;;;;;-145.69;100.00;52652.34;5114883;28;20221;-83
2023/02/14 03:57:02;;;;;;;0.90;0.90;;;;;;;-145.69;100.00;52666.19;5110913;28;20182;-83
2023/02/14 03:59:29;;;;;;;1.77;1.30;;;;;;;-145.69;100.00;52662.22;5094030;28;20202;-83
2023/02/14 04:02:01;;;;;;;1.20;0.90;;;;;;;-145.69;100.00;52634.50;5094617;28;20194;-82
2023/02/14 04:04:34;;;;;;;1.23;1.13;;;;;;;-145.69;100.00;52646.41;5093702;28;20202;-83
2023/02/14 04:07:09;;;;;;;1.00;0.90;;;;;;;-145.69;100.00;52646.41;5093967;28;20274;-82
2023/02/14 04:09:35;;;;;;;1.07;0.90;;;;;;;-145.69;100.00;52674.13;5093854;28;20601;-83
2023/02/14 04:12:03;;;;;;;0.90;0.90;;;;;;;-145.69;100.00;52670.16;5094415;28;20210;-83
2023/02/14 04:14:30;;;;;;;1.27;1.00;;;;;;;-145.69;100.00;52654.31;5093912;28;20226;-83
2023/02/14 04:19:46;;;;;;;0.80;0.80;;;;;;;-145.69;100.00;52638.47;5055158;28;20230;-83
2023/02/14 04:22:12;;;;;;;1.17;0.93;;;;;;;-145.69;100.00;52642.44;5106285;28;20228;-83
2023/02/14 04:24:39;;;;;;;1.33;1.00;;;;;;;-145.69;100.00;52634.50;5114266;28;20679;-83
2023/02/14 04:27:12;;;;;;;1.00;0.90;;;;;;;-145.69;100.00;52662.22;5114107;28;20595;-83
2023/02/14 04:29:40;;;;;;;1.00;0.80;;;;;;;-145.69;100.00;52662.22;5106124;28;20195;-82
2023/02/14 04:32:08;;;;;;;0.80;0.80;;;;;;;-145.69;100.00;52650.34;5094830;28;20194;-81
2023/02/14 04:34:35;;;;;;;0.90;0.80;;;;;;;-145.69;100.00;52630.53;5097935;28;20229;-82
2023/02/14 04:37:02;;;;;;;0.80;0.70;;;;;;;-145.69;100.00;52626.59;5098122;28;20204;-82
2023/02/14 04:39:28;;;;;;;1.17;0.70;;;;;;;-145.69;100.00;52666.19;5111603;28;20553;-82
2023/02/14 04:41:55;;;;;;;0.87;0.87;;;;;;;-145.69;100.00;52638.47;5097863;28;20244;-83
2023/02/14 04:44:23;;;;;;;0.70;0.70;;;;;;;-145.69;100.00;52693.94;5097753;28;20599;-83
2023/02/14 04:46:49;;;;;;;0.90;0.90;;;;;;;-145.69;100.00;52684.03;5097499;28;20201;-82
2023/02/14 04:49:16;;;;;;;1.20;0.73;;;;;;;-145.69;100.00;52691.94;5097646;28;20198;-82
2023/02/14 04:51:43;;;;;;;0.90;0.73;;;;;;;-145.69;100.00;52682.03;5097255;28;20210;-82
2023/02/14 04:54:09;;;;;;;0.70;0.70;;;;;;;-145.69;100.00;52666.19;5097214;28;20202;-81
2023/02/14 04:56:36;;;;;;;3.63;0.87;;;;;;;-145.69;100.00;52689.97;5097370;28;20197;-82
2023/02/14 04:59:03;;;;;;;5.03;0.90;;;;;;;-145.69;100.00;52662.22;5097360;28;20190;-83
2023/02/14 05:01:30;;;;;;;0.80;0.77;;;;;;;-145.69;100.00;52638.47;5097202;28;20198;-82
2023/02/14 05:03:57;;;;;;;2.83;1.00;;;;;;;-145.69;100.00;52670.16;5077009;28;20194;-82
2023/02/14 05:06:23;;;;;;;1.03;0.90;;;;;;;-145.69;100.00;52672.13;5076871;28;20211;-82
2023/02/14 05:08:50;;;;;;;2.70;1.00;;;;;;;-145.69;100.00;52650.34;5076757;28;20207;-82
2023/02/14 05:11:16;;;;;;;1.53;0.90;;;;;;;-145.69;100.00;52654.31;5076732;28;20206;-81
2023/02/14 05:13:43;;;;;;;0.93;0.93;;;;;;;-145.69;100.00;52654.31;5076664;28;20207;-82
2023/02/14 05:16:09;;;;;;;2.00;0.90;;;;;;;-145.69;100.00;52660.25;5076900;28;20226;-82
2023/02/14 05:18:37;;;;;;;0.97;0.90;;;;;;;-145.69;100.00;52650.34;5076655;28;20195;-82
2023/02/14 05:21:04;;;;;;;0.97;0.83;;;;;;;-145.69;100.00;52658.28;5076468;28;20657;-83
2023/02/14 05:23:30;;;;;;;0.70;0.70;;;;;;;-145.69;100.00;52662.22;5076590;28;20206;-81
2023/02/14 05:25:56;;;;;;;0.80;0.70;;;;;;;-145.69;100.00;52658.28;5089443;28;20201;-82
2023/02/14 05:28:23;;;;;;;3.03;0.80;;;;;;;-145.69;100.00;52650.34;5117129;28;20208;-81
2023/02/14 05:30:50;;;;;;;1.33;0.80;;;;;;;-145.69;100.00;52670.16;5117206;28;20193;-81
2023/02/14 05:33:17;;;;;;;2.00;1.00;;;;;;;-145.69;100.00;52642.44;5099213;28;20198;-81
2023/02/14 05:35:45;;;;;;;2.00;1.00;;;;;;;-145.69;100.00;52656.28;5076237;28;20226;-82
2023/02/14 05:38:11;;;;;;;3.70;0.80;;;;;;;-145.69;100.00;52630.53;5092575;28;20196;-81
2023/02/14 05:40:38;;;;;;;1.47;1.00;;;;;;;-145.69;100.00;52650.34;5117116;28;20652;-82
2023/02/14 05:43:04;;;;;;;0.83;0.83;;;;;;;-145.69;100.00;52656.28;5116046;28;20233;-82
2023/02/14 05:45:31;;;;;;;2.70;0.97;;;;;;;-145.69;100.00;52640.44;5116704;28;20259;-81
2023/02/14 05:47:57;;;;;;;3.37;0.90;;;;;;;-145.69;100.00;52676.09;5117009;28;20194;-82
2023/02/14 05:50:24;;;;;;;1.40;0.93;;;;;;;-145.69;100.00;52614.72;5110156;28;20239;-82
2023/02/14 05:52:52;;;;;;;0.90;0.90;;;;;;;-145.69;100.00;52650.34;5096064;28;20202;-82
2023/02/14 05:55:18;;;;;;;2.63;0.93;;;;;;;-145.69;100.00;52658.28;5096491;28;20225;-82
2023/02/14 05:57:45;;;;;;;1.00;0.90;;;;;;;-145.69;100.00;52695.91;5096321;28;20202;-82
2023/02/14 06:00:13;;;;;;;1.27;0.80;;;;;;;-145.69;100.00;52664.22;5096114;28;20198;-82
2023/02/14 06:02:39;;;;;;;0.90;0.70;;;;;;;-145.69;100.00;52644.41;5095914;28;20663;-82
2023/02/14 06:05:06;;;;;;;0.73;0.70;;;;;;;-145.69;100.00;52650.34;5095958;28;20198;-82
2023/02/14 06:07:33;;;;;;;3.17;0.90;;;;;;;-145.69;100.00;52664.22;5095958;28;20209;-82
2023/02/14 06:10:01;;;;;;;4.60;1.00;;;;;;;-145.69;100.00;52654.31;5096138;28;20198;-81
2023/02/14 06:12:27;;;;;;;5.50;1.30;;;;;;;-145.69;100.00;52666.19;5095865;28;20194;-82
2023/02/14 06:14:54;;;;;;;1.20;1.10;;;;;;;-145.69;100.00;52628.56;5095822;28;20233;-82
2023/02/14 06:17:20;;;;;;;1.47;1.17;;;;;;;-145.69;100.00;52666.19;5095941;28;20198;-82
2023/02/14 06:19:46;;;;;;;9.33;1.13;;;;;;;-145.69;100.00;52674.13;5095633;28;20210;-82
2023/02/14 06:22:13;;;;;;;2.97;1.20;;;;;;;-145.69;100.00;52652.34;5095803;28;20209;-83
2023/02/14 06:24:39;;;;;;;1.77;1.03;;;;;;;-145.69;100.00;52650.34;5096035;28;20202;-82
2023/02/14 06:27:07;;;;;;;6.00;1.50;;;;;;;-145.69;100.00;52652.34;5095708;28;20546;-83
2023/02/14 06:29:33;;;;;;;1.80;1.30;;;;;;;-145.69;100.00;52644.41;5095620;28;20538;-82
2023/02/14 06:32:04;;;;;;;7.20;1.10;;;;;;;-145.69;100.00;52658.28;5095468;28;20217;-82
2023/02/14 06:34:31;;;;;;;2.10;1.30;;;;;;;-145.69;100.00;52642.44;5095332;28;20198;-82
2023/02/14 06:36:57;;;;;;;4.00;1.27;;;;;;;-145.69;100.00;52660.25;5099431;28;20217;-82
2023/02/14 06:39:24;;;;;;;1.13;1.00;;;;;;;-145.69;100.00;52646.41;5105222;28;20202;-83
2023/02/14 06:41:50;;;;;;;2.23;1.33;;;;;;;-145.69;100.00;52632.53;5095194;28;20249;-83
2023/02/14 06:44:18;;;;;;;1.93;1.40;;;;;;;-145.69;100.00;52626.59;5095212;28;20198;-83
2023/02/14 06:46:44;;;;;;;2.80;1.10;;;;;;;-145.69;100.00;52640.44;5075613;28;20666;-82
2023/02/14 06:49:11;;;;;;;1.27;0.93;;;;;;;-145.69;100.00;52662.22;5074796;28;20232;-83
2023/02/14 06:51:37;;;;;;;3.17;1.47;;;;;;;-145.69;100.00;52654.31;5075177;28;20198;-83
2023/02/14 06:54:04;;;;;;;2.03;1.00;;;;;;;-145.69;100.00;52640.44;5073515;28;20238;-82
2023/02/14 06:56:30;;;;;;;1.40;0.80;;;;;;;-145.69;100.00;52695.91;5074195;28;20227;-82
2023/02/14 06:58:57;;;;;;;8.30;1.17;;;;;;;-145.69;100.00;52670.16;5074831;28;20652;-82
2023/02/14 07:01:25;;;;;;;1.20;1.10;;;;;;;-145.69;100.00;52652.34;5074842;28;20202;-82
2023/02/14 07:03:51;;;;;;;2.43;1.10;;;;;;;-145.69;100.00;52699.88;5108384;28;20198;-83
2023/02/14 07:06:17;;;;;;;1.03;0.90;;;;;;;-145.69;100.00;52658.28;5100407;28;20193;-82
2023/02/14 07:08:44;;;;;;;1.40;1.00;;;;;;;-145.69;100.00;52664.22;5115164;28;20205;-82
2023/02/14 07:11:10;;;;;;;1.03;0.87;;;;;;;-145.69;100.00;52705.81;5115102;28;20193;-83
2023/02/14 07:13:37;;;;;;;1.50;1.17;;;;;;;-145.69;100.00;52644.41;5115336;28;20226;-83
2023/02/14 07:16:03;;;;;;;1.13;1.00;;;;;;;-145.69;100.00;52628.56;5115092;28;20233;-83
2023/02/14 07:18:31;;;;;;;1.63;1.00;;;;;;;-145.69;100.00;52658.28;5114669;28;20197;-83
2023/02/14 07:20:58;;;;;;;2.07;1.20;;;;;;;-145.69;100.00;52638.47;5114508;28;20198;-83
2023/02/14 07:23:24;;;;;;;1.00;0.80;;;;;;;-145.69;100.00;52660.25;5115078;28;20205;-83
2023/02/14 07:25:50;;;;;;;1.33;0.90;;;;;;;-145.69;100.00;52630.53;5112169;28;20206;-81
2023/02/14 07:28:17;;;;;;;1.90;0.80;;;;;;;-145.69;100.00;52616.69;5094443;28;20660;-82
2023/02/14 07:30:44;;;;;;;3.80;1.20;;;;;;;-145.69;100.00;52642.44;5094002;28;20233;-81
2023/02/14 07:33:11;;;;;;;1.70;1.10;;;;;;;-145.69;100.00;52640.44;5106976;28;20590;-82
2023/02/14 07:35:39;;;;;;;1.13;0.90;;;;;;;-145.69;100.00;52630.53;5114377;28;20263;-81
2023/02/14 07:38:05;;;;;;;1.33;0.90;;;;;;;-145.69;100.00;52654.31;5109526;28;20196;-81
2023/02/14 07:40:32;;;;;;;1.47;1.17;;;;;;;-145.69;100.00;52638.47;5097974;28;20196;-82
2023/02/14 07:42:59;;;;;;;1.70;0.90;;;;;;;-145.69;100.00;52676.09;5114108;28;20228;-82
2023/02/14 07:45:27;;;;;;;1.90;1.03;;;;;;;-145.69;100.00;52670.16;5115279;28;20668;-82
2023/02/14 07:47:54;;;;;;;5.17;1.00;;;;;;;-145.69;100.00;52695.91;5114503;28;20212;-83
2023/02/14 07:50:22;;;;;;;0.80;0.80;;;;;;;-145.69;100.00;52654.31;5114414;28;20189;-83
2023/02/14 07:52:49;;;;;;;2.37;0.97;;;;;;;-145.69;100.00;52640.44;5114309;28;20205;-84
2023/02/14 07:55:18;;;;;;;1.53;1.00;;;;;;;-145.69;100.00;52650.34;5114199;28;20228;-83
2023/02/14 07:57:44;;;;;;;0.87;0.87;;;;;;;-145.69;100.00;52632.53;5114343;28;20201;-84
2023/02/14 08:00:13;;;;;;;1.87;0.80;;;;;;;-145.69;100.00;52642.44;5114513;28;20205;-84
2023/02/14 08:02:39;;;;;;;0.73;0.73;;;;;;;-145.69;100.00;52604.81;5112375;28;20239;-84
2023/02/14 08:05:06;;;;;;;1.10;0.77;;;;;;;-145.69;100.00;52602.81;5114697;28;20218;-83
2023/02/14 08:07:33;;;;;;;1.37;0.80;;;;;;;-145.69;100.00;52626.59;5114079;28;20208;-83
2023/02/14 08:10:01;;;;;;;4.83;0.70;;;;;;;-145.69;100.00;52668.19;5114631;28;20258;-82
2023/02/14 08:17:56;;;;;;;1.60;0.83;;;;;;;-145.69;100.00;52670.16;5113451;28;20216;-83
2023/02/14 08:20:22;;;;;;;1.40;1.00;;;;;;;-145.69;100.00;52658.28;5093769;28;20205;-83
2023/02/14 08:22:49;;;;;;;1.80;0.90;;;;;;;-145.69;100.00;52670.16;5093710;28;20198;-84
2023/02/14 08:25:17;;;;;;;0.80;0.70;;;;;;;-145.69;100.00;52642.44;5093925;28;20252;-83
2023/02/14 08:27:43;;;;;;;1.13;0.80;;;;;;;-145.69;100.00;52662.22;5093864;28;20202;-83
2023/02/14 08:30:10;;;;;;;0.67;0.63;;;;;;;-145.69;100.00;52628.56;5094215;28;20198;-83
2023/02/14 08:32:37;;;;;;;1.73;0.70;;;;;;;-145.69;100.00;52678.09;5099661;28;20186;-83
2023/02/14 08:35:03;;;;;;;1.13;0.90;;;;;;;-145.69;100.00;52642.44;5113986;28;20205;-84
2023/02/14 08:37:30;;;;;;;0.60;0.60;;;;;;;-145.69;100.00;52634.50;5111551;28;20236;-85
2023/02/14 08:39:56;;;;;;;0.70;0.70;;;;;;;-145.69;100.00;52646.41;5093610;28;20675;-84
2023/02/14 08:42:24;;;;;;;0.70;0.70;;;;;;;-145.69;100.00;52648.38;5109936;28;20221;-83
2023/02/14 08:44:50;;;;;;;1.70;1.10;;;;;;;-145.69;100.00;52642.44;5113869;28;20664;-83
2023/02/14 08:47:17;;;;;;;1.87;1.40;;;;;;;-145.69;100.00;52640.44;5113857;28;20196;-83
2023/02/14 08:49:43;;;;;;;4.13;2.47;;;;;;;-145.69;100.00;52644.41;5113069;28;20193;-84
2023/02/14 08:52:10;;;;;;;5.80;3.33;;;;;;;-145.69;100.00;52658.28;5112304;28;20205;-85
2023/02/14 08:54:36;;;;;;;6.47;3.93;;;;;;;-145.69;100.00;52630.53;5113962;28;20197;-83
2023/02/14 08:57:03;;;;;;;5.50;3.63;;;;;;;-145.69;100.00;52638.47;5113377;28;20254;-85
2023/02/14 08:59:31;;;;;;;5.53;2.97;;;;;;;-145.69;100.00;52624.59;5114214;28;20201;-84
2023/02/14 09:01:57;;;;;;;4.70;2.57;;;;;;;-145.69;100.00;52618.66;5114100;28;20197;-84
2023/02/14 09:04:24;;;;;;;3.73;1.47;;;;;;;-145.69;100.00;52642.44;5113983;28;20228;-83
2023/02/14 09:06:50;;;;;;;3.17;1.87;;;;;;;-145.69;100.00;52606.78;5112507;28;20213;-83
2023/02/14 09:09:18;;;;;;;4.53;2.17;;;;;;;-145.69;100.00;52638.47;5093203;28;20198;-84
2023/02/14 09:11:44;;;;;;;2.53;1.97;;;;;;;-145.69;100.00;52594.91;5093509;28;20649;-84
2023/02/14 09:14:11;;;;;;;3.57;2.30;;;;;;;-145.69;100.00;52630.53;5095678;28;20209;-84
2023/02/14 09:16:38;;;;;;;3.37;2.13;;;;;;;-145.69;100.00;52612.72;5113434;28;20229;-85
2023/02/14 09:19:05;;;;;;;2.63;1.33;;;;;;;-145.69;100.00;52634.50;5116159;28;20208;-86
2023/02/14 09:21:33;;;;;;;2.70;1.77;;;;;;;-145.69;100.00;52626.59;5117874;28;20258;-83
2023/02/14 09:23:59;;;;;;;3.33;1.97;;;;;;;-145.69;100.00;52608.75;5117329;28;20284;-83
2023/02/14 09:26:26;;;;;;;4.93;2.10;;;;;;;-145.69;100.00;52646.41;5113011;28;20194;-86
2023/02/14 09:28:52;;;;;;;5.57;2.80;;;;;;;-145.69;100.00;52652.34;5097082;28;20197;-86
2023/02/14 09:31:21;;;;;;;4.67;3.17;;;;;;;-145.69;100.00;52600.84;5097190;28;20786;-83
2023/02/14 09:33:50;;;;;;;10.27;4.63;;;;;;;-145.69;100.00;52612.72;5097494;28;20206;-82
2023/02/14 09:39:00;;;;;;;15.33;4.87;;;;;;;-145.69;100.00;52592.91;5116610;28;20559;-82
2023/02/14 09:41:58;;;;;;;7.40;3.70;;;;;;;-145.69;100.00;52620.66;5116065;28;20578;-81
2023/02/14 09:44:27;;;;;;;10.23;4.10;;;;;;;-145.69;100.00;52563.22;5116468;28;20201;-81
2023/02/14 09:47:01;;;;;;;13.30;4.80;;;;;;;-145.69;100.00;52610.75;5110374;28;20197;-81
2023/02/14 09:49:32;;;;;;;4.10;1.70;;;;;;;-145.69;100.00;52602.81;5096013;28;20560;-81
2023/02/14 09:52:01;;;;;;;2.20;1.47;;;;;;;-145.69;100.00;52622.63;5095961;28;20194;-82
2023/02/14 09:54:30;;;;;;;1.93;1.50;;;;;;;-145.69;100.00;52594.91;5095900;28;20234;-82
2023/02/14 09:57:01;;;;;;;2.70;1.63;;;;;;;-145.69;100.00;52614.72;5095691;28;20718;-82
2023/02/14 09:59:34;;;;;;;3.57;2.10;;;;;;;-145.69;100.00;52567.16;5106834;28;20202;-81
2023/02/14 10:02:26;;;;;;;3.97;2.07;;;;;;;-145.69;100.00;52585.00;5116182;28;20209;-81
2023/02/14 10:05:05;;;;;;;2.77;1.80;;;;;;;-145.69;100.00;52579.06;5117005;28;20205;-85
2023/02/14 10:07:40;;;;;;;3.43;1.97;;;;;;;-145.69;100.00;52588.97;5117667;28;20201;-85
2023/02/14 10:10:13;;;;;;;7.97;2.40;;;;;;;-145.69;100.00;52567.16;5117077;28;20567;-83
2023/02/14 10:12:45;;;;;;;8.10;3.13;;;;;;;-145.69;100.00;52567.16;5117056;28;20216;-85
2023/02/14 10:15:16;;;;;;;3.97;1.77;;;;;;;-145.69;100.00;52563.22;5116241;28;20193;-82
2023/02/14 10:17:47;;;;;;;4.13;1.33;;;;;;;-145.69;100.00;52567.16;5116079;28;20226;-83
2023/02/14 10:20:23;;;;;;;3.50;1.33;;;;;;;-145.69;100.00;52590.94;5115309;28;20624;-84
2023/02/14 10:22:59;;;;;;;3.17;1.80;;;;;;;-145.69;100.00;52575.09;5112008;28;20198;-82
2023/02/14 10:25:30;;;;;;;4.30;2.10;;;;;;;-145.69;100.00;52573.13;5095352;28;20197;-81
2023/02/14 10:28:01;;;;;;;3.67;2.10;;;;;;;-145.69;100.00;52539.44;5095036;28;20206;-81
2023/02/14 10:30:37;;;;;;;3.47;1.93;;;;;;;-145.69;100.00;52541.44;5094133;28;20198;-81
2023/02/14 10:33:14;;;;;;;3.47;2.00;;;;;;;-145.69;98.69;52575.09;5085697;28;20277;-82
2023/02/14 10:35:47;;;;;;;5.73;1.90;;;;;;;-145.69;100.00;52535.47;5095334;28;20671;-82
2023/02/14 10:38:24;;;;;;;2.00;1.33;;;;;;;-145.69;93.91;52545.38;5095434;28;20238;-83
2023/02/14 10:41:05;;;;;;;2.20;1.20;;;;;;;-145.69;84.33;52531.53;5098044;28;20197;-82
2023/02/14 10:43:39;;;;;;;2.43;1.50;;;;;;;-145.69;90.59;52561.22;5095869;28;20261;-83
2023/02/14 10:46:15;;;;;;;3.90;1.40;;;;;;;-145.69;92.00;52547.38;5096391;28;20209;-83
2023/02/14 10:48:51;;;;;;;1.47;1.10;;;;;;;-145.69;84.78;52541.44;5117781;28;20290;-82
2023/02/14 10:51:24;;;;;;;1.40;1.07;;;;;;;-145.69;81.33;52557.28;5115580;28;20690;-84
2023/02/14 10:54:06;;;;;;;2.20;1.33;;;;;;;-145.69;76.90;52525.59;5115658;28;20209;-85
2023/02/14 10:56:39;;;;;;;4.00;1.10;;;;;;;-145.69;82.36;52563.22;5115218;28;20486;-84
2023/02/14 10:59:16;;;;;;;4.30;1.27;;;;;;;-145.69;80.49;52527.56;5111643;28;20201;-84
2023/02/14 11:01:44;;;;;;;3.47;1.50;;;;;;;-145.69;79.10;52515.69;5094912;28;20197;-84
2023/02/14 11:04:13;;;;;;;3.03;1.40;;;;;;;-145.69;78.45;52573.13;5094840;28;20201;-84
2023/02/14 11:06:40;;;;;;;3.77;1.77;;;;;;;-145.69;78.99;52511.72;5094542;28;20561;-83
2023/02/14 11:09:07;;;;;;;3.33;1.90;;;;;;;-145.69;79.38;52531.53;5079026;28;20218;-83
2023/02/14 11:11:39;;;;;;;3.37;1.70;;;;;;;-145.69;81.76;52557.28;5089966;28;20190;-84
2023/02/14 11:14:20;;;;;;;4.17;1.83;;;;;;;-145.69;80.59;52523.59;5106377;28;20193;-83
2023/02/14 11:16:50;;;;;;;3.23;1.70;;;;;;;-145.69;81.78;52517.66;5114389;28;20259;-85
2023/02/14 11:19:21;;;;;;;2.87;1.60;;;;;;;-145.69;81.23;52519.63;5114846;28;20197;-85
2023/02/14 11:21:51;;;;;;;3.63;1.53;;;;;;;-145.69;67.25;52553.31;5098654;28;20683;-85
2023/02/14 11:24:20;;;;;;;2.67;1.40;;;;;;;-145.69;74.61;52549.34;5097502;28;20213;-84
2023/02/14 11:26:51;;;;;;;3.80;1.70;;;;;;;-145.69;67.87;52545.38;5097688;28;20209;-85
2023/02/14 11:29:25;;;;;;;3.17;2.00;;;;;;;-145.69;65.26;52478.06;5097020;28;20565;-84
2023/02/14 11:31:52;;;;;;;5.57;2.27;;;;;;;-145.69;65.55;52507.75;5097607;28;20209;-85
2023/02/14 11:34:31;;;;;;;3.40;1.70;;;;;;;-145.69;68.17;52489.94;5110836;28;20201;-83
2023/02/14 11:37:00;;;;;;;2.57;1.10;;;;;;;-145.69;59.35;52545.38;5114841;28;20225;-83
2023/02/14 11:39:29;;;;;;;3.30;1.40;;;;;;;-145.69;67.30;52503.81;5114406;28;20648;-82
2023/02/14 11:41:58;;;;;;;2.67;1.60;;;;;;;-145.69;56.70;52487.97;5107450;28;20252;-85
2023/02/14 11:44:27;;;;;;;8.05;1.52;;;;;;;-145.69;58.75;52505.78;5100617;28;20198;-85
2023/02/14 11:46:55;;;;;;;4.70;1.75;;;;;;;-145.69;57.98;52517.66;5094059;28;20213;-85